sensor_id;sensor_type;location;lat;lon;timestamp;P1;durP1;ratioP1;P2;durP2;ratioP2
75603;SDS011;64187;51.010;13.792;2023-03-14T00:02:35;4.93;;;1.42;;
75603;SDS011;64187;51.010;13.792;2023-03-14T00:07:34;3.00;;;1.73;;
75603;SDS011;64187;51.010;13.792;2023-03-14T00:12:34;3.38;;;1.80;;
75603;SDS011;64187;51.010;13.792;2023-03-14T00:17:35;2.42;;;1.20;;
75603;SDS011;64187;51.010;13.792;2023-03-14T00:22:35;1.98;;;1.20;;
75603;SDS011;64187;51.010;13.792;2023-03-14T00:27:34;2.00;;;1.35;;
75603;SDS011;64187;51.010;13.792;2023-03-14T00:32:33;1.88;;;1.20;;
75603;SDS011;64187;51.010;13.792;2023-03-14T00:37:33;3.38;;;1.52;;
75603;SDS011;64187;51.010;13.792;2023-03-14T00:42:32;3.55;;;1.50;;
75603;SDS011;64187;51.010;13.792;2023-03-14T00:47:31;3.15;;;1.75;;
75603;SDS011;64187;51.010;13.792;2023-03-14T00:52:30;2.67;;;1.60;;
75603;SDS011;64187;51.010;13.792;2023-03-14T00:57:30;2.70;;;1.90;;
75603;SDS011;64187;51.010;13.792;2023-03-14T01:02:29;2.85;;;2.05;;
75603;SDS011;64187;51.010;13.792;2023-03-14T01:07:27;2.75;;;2.10;;
75603;SDS011;64187;51.010;13.792;2023-03-14T01:12:27;2.53;;;1.65;;
75603;SDS011;64187;51.010;13.792;2023-03-14T01:17:26;3.00;;;2.42;;
75603;SDS011;64187;51.010;13.792;2023-03-14T01:22:25;2.83;;;1.88;;
75603;SDS011;64187;51.010;13.792;2023-03-14T01:27:24;3.17;;;1.90;;
75603;SDS011;64187;51.010;13.792;2023-03-14T01:32:23;2.90;;;1.83;;
75603;SDS011;64187;51.010;13.792;2023-03-14T01:37:23;3.13;;;2.00;;
75603;SDS011;64187;51.010;13.792;2023-03-14T01:42:22;2.30;;;1.55;;
75603;SDS011;64187;51.010;13.792;2023-03-14T01:47:22;3.15;;;2.03;;
75603;SDS011;64187;51.010;13.792;2023-03-14T01:52:26;2.65;;;2.03;;
75603;SDS011;64187;51.010;13.792;2023-03-14T01:57:36;2.03;;;1.55;;
75603;SDS011;64187;51.010;13.792;2023-03-14T02:02:43;2.65;;;2.08;;
75603;SDS011;64187;51.010;13.792;2023-03-14T02:07:48;2.75;;;1.77;;
75603;SDS011;64187;51.010;13.792;2023-03-14T02:12:54;3.10;;;1.98;;
75603;SDS011;64187;51.010;13.792;2023-03-14T02:18:13;2.97;;;2.08;;
75603;SDS011;64187;51.010;13.792;2023-03-14T02:23:31;3.03;;;2.20;;
75603;SDS011;64187;51.010;13.792;2023-03-14T02:28:35;2.80;;;1.83;;
75603;SDS011;64187;51.010;13.792;2023-03-14T02:33:35;2.03;;;1.50;;
75603;SDS011;64187;51.010;13.792;2023-03-14T02:38:38;2.97;;;1.70;;
75603;SDS011;64187;51.010;13.792;2023-03-14T02:43:58;1.80;;;1.13;;
75603;SDS011;64187;51.010;13.792;2023-03-14T02:49:00;0.90;;;0.55;;
75603;SDS011;64187;51.010;13.792;2023-03-14T02:54:02;0.60;;;0.50;;
75603;SDS011;64187;51.010;13.792;2023-03-14T02:59:03;0.30;;;0.30;;
75603;SDS011;64187;51.010;13.792;2023-03-14T03:04:15;0.60;;;0.30;;
75603;SDS011;64187;51.010;13.792;2023-03-14T03:09:16;0.10;;;0.10;;
75603;SDS011;64187;51.010;13.792;2023-03-14T03:14:15;0.30;;;0.20;;
75603;SDS011;64187;51.010;13.792;2023-03-14T03:19:14;0.40;;;0.30;;
75603;SDS011;64187;51.010;13.792;2023-03-14T03:24:15;0.50;;;0.20;;
75603;SDS011;64187;51.010;13.792;2023-03-14T03:29:14;0.40;;;0.22;;
75603;SDS011;64187;51.010;13.792;2023-03-14T03:34:14;0.25;;;0.20;;
75603;SDS011;64187;51.010;13.792;2023-03-14T03:39:13;0.32;;;0.30;;
75603;SDS011;64187;51.010;13.792;2023-03-14T03:44:12;0.30;;;0.30;;
75603;SDS011;64187;51.010;13.792;2023-03-14T03:49:12;0.98;;;0.30;;
75603;SDS011;64187;51.010;13.792;2023-03-14T03:54:11;1.35;;;0.20;;
75603;SDS011;64187;51.010;13.792;2023-03-14T03:59:10;0.47;;;0.20;;
75603;SDS011;64187;51.010;13.792;2023-03-14T04:04:09;0.10;;;0.10;;
75603;SDS011;64187;51.010;13.792;2023-03-14T04:09:09;0.30;;;0.20;;
75603;SDS011;64187;51.010;13.792;2023-03-14T04:14:14;0.32;;;0.20;;
75603;SDS011;64187;51.010;13.792;2023-03-14T04:19:14;1.10;;;0.30;;
75603;SDS011;64187;51.010;13.792;2023-03-14T04:24:13;4.05;;;1.42;;
75603;SDS011;64187;51.010;13.792;2023-03-14T04:29:16;0.88;;;0.35;;
75603;SDS011;64187;51.010;13.792;2023-03-14T04:34:16;0.90;;;0.50;;
75603;SDS011;64187;51.010;13.792;2023-03-14T04:39:22;0.95;;;0.38;;
75603;SDS011;64187;51.010;13.792;2023-03-14T04:44:38;0.25;;;0.10;;
75603;SDS011;64187;51.010;13.792;2023-03-14T04:49:38;1.35;;;0.45;;
75603;SDS011;64187;51.010;13.792;2023-03-14T04:54:39;0.32;;;0.30;;
75603;SDS011;64187;51.010;13.792;2023-03-14T04:59:38;1.10;;;1.02;;
75603;SDS011;64187;51.010;13.792;2023-03-14T05:05:03;0.70;;;0.20;;
75603;SDS011;64187;51.010;13.792;2023-03-14T05:10:13;0.68;;;0.20;;
75603;SDS011;64187;51.010;13.792;2023-03-14T05:15:24;1.80;;;0.35;;
75603;SDS011;64187;51.010;13.792;2023-03-14T05:20:44;1.35;;;0.40;;
75603;SDS011;64187;51.010;13.792;2023-03-14T05:25:52;0.88;;;0.73;;
75603;SDS011;64187;51.010;13.792;2023-03-14T05:31:10;1.00;;;0.30;;
75603;SDS011;64187;51.010;13.792;2023-03-14T05:36:18;0.63;;;0.28;;
75603;SDS011;64187;51.010;13.792;2023-03-14T05:41:43;3.28;;;0.60;;
75603;SDS011;64187;51.010;13.792;2023-03-14T05:47:02;2.03;;;0.50;;
75603;SDS011;64187;51.010;13.792;2023-03-14T05:52:12;1.35;;;0.60;;
75603;SDS011;64187;51.010;13.792;2023-03-14T05:57:30;2.42;;;0.40;;
75603;SDS011;64187;51.010;13.792;2023-03-14T06:02:55;4.07;;;0.60;;
75603;SDS011;64187;51.010;13.792;2023-03-14T06:08:00;2.60;;;0.50;;
75603;SDS011;64187;51.010;13.792;2023-03-14T06:13:02;1.73;;;0.50;;
75603;SDS011;64187;51.010;13.792;2023-03-14T06:18:03;1.20;;;0.30;;
75603;SDS011;64187;51.010;13.792;2023-03-14T06:23:03;1.70;;;0.60;;
75603;SDS011;64187;51.010;13.792;2023-03-14T06:28:02;3.13;;;0.60;;
75603;SDS011;64187;51.010;13.792;2023-03-14T06:33:02;5.45;;;0.60;;
75603;SDS011;64187;51.010;13.792;2023-03-14T06:38:02;1.98;;;0.40;;
75603;SDS011;64187;51.010;13.792;2023-03-14T06:43:00;2.58;;;0.50;;
75603;SDS011;64187;51.010;13.792;2023-03-14T06:48:02;1.80;;;0.40;;
75603;SDS011;64187;51.010;13.792;2023-03-14T06:53:08;3.72;;;1.10;;
75603;SDS011;64187;51.010;13.792;2023-03-14T06:58:11;3.20;;;0.50;;
75603;SDS011;64187;51.010;13.792;2023-03-14T07:03:14;2.53;;;0.40;;
75603;SDS011;64187;51.010;13.792;2023-03-14T07:08:18;4.15;;;0.70;;
75603;SDS011;64187;51.010;13.792;2023-03-14T07:13:17;2.85;;;1.00;;
75603;SDS011;64187;51.010;13.792;2023-03-14T07:18:24;3.33;;;0.55;;
75603;SDS011;64187;51.010;13.792;2023-03-14T07:23:23;3.22;;;0.52;;
75603;SDS011;64187;51.010;13.792;2023-03-14T07:28:24;3.22;;;1.05;;
75603;SDS011;64187;51.010;13.792;2023-03-14T07:33:29;3.25;;;0.60;;
75603;SDS011;64187;51.010;13.792;2023-03-14T07:38:29;2.63;;;0.57;;
75603;SDS011;64187;51.010;13.792;2023-03-14T07:43:42;2.50;;;0.70;;
75603;SDS011;64187;51.010;13.792;2023-03-14T07:48:42;3.33;;;0.50;;
75603;SDS011;64187;51.010;13.792;2023-03-14T07:53:41;3.72;;;0.82;;
75603;SDS011;64187;51.010;13.792;2023-03-14T07:58:41;4.53;;;0.88;;
75603;SDS011;64187;51.010;13.792;2023-03-14T08:03:40;2.50;;;0.68;;
75603;SDS011;64187;51.010;13.792;2023-03-14T08:08:39;3.10;;;0.60;;
75603;SDS011;64187;51.010;13.792;2023-03-14T08:13:38;2.05;;;0.40;;
75603;SDS011;64187;51.010;13.792;2023-03-14T08:18:37;2.17;;;0.65;;
75603;SDS011;64187;51.010;13.792;2023-03-14T08:23:36;3.00;;;0.52;;
75603;SDS011;64187;51.010;13.792;2023-03-14T08:28:35;2.28;;;0.40;;
75603;SDS011;64187;51.010;13.792;2023-03-14T08:33:34;1.25;;;0.30;;
75603;SDS011;64187;51.010;13.792;2023-03-14T08:38:33;2.50;;;0.30;;
75603;SDS011;64187;51.010;13.792;2023-03-14T08:43:32;0.40;;;0.30;;
75603;SDS011;64187;51.010;13.792;2023-03-14T08:48:31;0.70;;;0.30;;
75603;SDS011;64187;51.010;13.792;2023-03-14T08:53:30;1.50;;;0.40;;
75603;SDS011;64187;51.010;13.792;2023-03-14T08:58:29;1.55;;;0.43;;
75603;SDS011;64187;51.010;13.792;2023-03-14T09:03:28;1.08;;;0.40;;
75603;SDS011;64187;51.010;13.792;2023-03-14T09:08:27;1.75;;;0.35;;
75603;SDS011;64187;51.010;13.792;2023-03-14T09:13:26;2.00;;;0.30;;
75603;SDS011;64187;51.010;13.792;2023-03-14T09:18:25;1.77;;;0.30;;
75603;SDS011;64187;51.010;13.792;2023-03-14T09:23:24;1.50;;;0.47;;
75603;SDS011;64187;51.010;13.792;2023-03-14T09:28:23;2.95;;;0.43;;
75603;SDS011;64187;51.010;13.792;2023-03-14T09:33:23;1.02;;;0.40;;
75603;SDS011;64187;51.010;13.792;2023-03-14T09:38:22;1.20;;;0.47;;
75603;SDS011;64187;51.010;13.792;2023-03-14T09:43:22;1.85;;;0.30;;
75603;SDS011;64187;51.010;13.792;2023-03-14T09:48:25;1.02;;;0.30;;
75603;SDS011;64187;51.010;13.792;2023-03-14T09:53:38;1.48;;;0.32;;
75603;SDS011;64187;51.010;13.792;2023-03-14T09:58:40;0.90;;;0.25;;
75603;SDS011;64187;51.010;13.792;2023-03-14T10:03:42;1.00;;;0.30;;
75603;SDS011;64187;51.010;13.792;2023-03-14T10:08:44;1.25;;;0.30;;
75603;SDS011;64187;51.010;13.792;2023-03-14T10:13:48;0.82;;;0.40;;
75603;SDS011;64187;51.010;13.792;2023-03-14T10:19:08;1.55;;;0.30;;
75603;SDS011;64187;51.010;13.792;2023-03-14T10:24:20;2.10;;;0.32;;
75603;SDS011;64187;51.010;13.792;2023-03-14T10:29:24;2.38;;;0.77;;
75603;SDS011;64187;51.010;13.792;2023-03-14T10:34:25;0.45;;;0.40;;
75603;SDS011;64187;51.010;13.792;2023-03-14T10:39:27;1.00;;;0.45;;
75603;SDS011;64187;51.010;13.792;2023-03-14T10:44:33;3.13;;;0.50;;
75603;SDS011;64187;51.010;13.792;2023-03-14T10:49:34;1.15;;;0.38;;
75603;SDS011;64187;51.010;13.792;2023-03-14T10:54:34;0.88;;;0.20;;
75603;SDS011;64187;51.010;13.792;2023-03-14T10:59:35;0.95;;;0.40;;
75603;SDS011;64187;51.010;13.792;2023-03-14T11:10:12;1.00;;;0.50;;
75603;SDS011;64187;51.010;13.792;2023-03-14T11:20:38;0.68;;;0.32;;
75603;SDS011;64187;51.010;13.792;2023-03-14T11:25:53;1.27;;;0.60;;
75603;SDS011;64187;51.010;13.792;2023-03-14T11:30:54;0.85;;;0.25;;
75603;SDS011;64187;51.010;13.792;2023-03-14T11:36:08;2.20;;;0.38;;
75603;SDS011;64187;51.010;13.792;2023-03-14T11:41:13;1.23;;;0.30;;
75603;SDS011;64187;51.010;13.792;2023-03-14T11:46:23;0.93;;;0.32;;
75603;SDS011;64187;51.010;13.792;2023-03-14T11:51:29;2.45;;;0.30;;
75603;SDS011;64187;51.010;13.792;2023-03-14T11:56:37;1.50;;;0.30;;
75603;SDS011;64187;51.010;13.792;2023-03-14T12:01:51;0.50;;;0.10;;
75603;SDS011;64187;51.010;13.792;2023-03-14T12:06:52;0.77;;;0.35;;
75603;SDS011;64187;51.010;13.792;2023-03-14T12:11:56;0.77;;;0.28;;
75603;SDS011;64187;51.010;13.792;2023-03-14T12:16:59;0.50;;;0.30;;
75603;SDS011;64187;51.010;13.792;2023-03-14T12:22:26;1.88;;;0.55;;
75603;SDS011;64187;51.010;13.792;2023-03-14T12:27:40;0.57;;;0.28;;
75603;SDS011;64187;51.010;13.792;2023-03-14T12:32:42;0.90;;;0.30;;
75603;SDS011;64187;51.010;13.792;2023-03-14T12:37:41;1.02;;;0.40;;
75603;SDS011;64187;51.010;13.792;2023-03-14T12:43:02;0.45;;;0.28;;
75603;SDS011;64187;51.010;13.792;2023-03-14T12:48:22;0.93;;;0.40;;
75603;SDS011;64187;51.010;13.792;2023-03-14T13:04:09;1.02;;;0.20;;
75603;SDS011;64187;51.010;13.792;2023-03-14T13:14:31;0.30;;;0.10;;
75603;SDS011;64187;51.010;13.792;2023-03-14T13:19:30;0.73;;;0.17;;
75603;SDS011;64187;51.010;13.792;2023-03-14T13:24:33;0.90;;;0.52;;
75603;SDS011;64187;51.010;13.792;2023-03-14T13:29:33;0.35;;;0.17;;
75603;SDS011;64187;51.010;13.792;2023-03-14T13:34:34;0.20;;;0.10;;
75603;SDS011;64187;51.010;13.792;2023-03-14T13:39:33;1.08;;;0.30;;
75603;SDS011;64187;51.010;13.792;2023-03-14T13:44:39;1.02;;;0.17;;
75603;SDS011;64187;51.010;13.792;2023-03-14T13:49:38;0.70;;;0.40;;
75603;SDS011;64187;51.010;13.792;2023-03-14T13:54:38;1.98;;;0.20;;
75603;SDS011;64187;51.010;13.792;2023-03-14T13:59:37;0.70;;;0.50;;
75603;SDS011;64187;51.010;13.792;2023-03-14T14:04:36;0.43;;;0.17;;
75603;SDS011;64187;51.010;13.792;2023-03-14T14:09:40;0.75;;;0.43;;
75603;SDS011;64187;51.010;13.792;2023-03-14T14:19:57;0.30;;;0.10;;
75603;SDS011;64187;51.010;13.792;2023-03-14T14:24:58;1.13;;;0.10;;
75603;SDS011;64187;51.010;13.792;2023-03-14T14:30:05;0.52;;;0.20;;
75603;SDS011;64187;51.010;13.792;2023-03-14T14:35:23;0.60;;;0.20;;
75603;SDS011;64187;51.010;13.792;2023-03-14T14:40:25;0.50;;;0.30;;
75603;SDS011;64187;51.010;13.792;2023-03-14T14:45:26;0.43;;;0.20;;
75603;SDS011;64187;51.010;13.792;2023-03-14T14:55:31;0.30;;;0.30;;
75603;SDS011;64187;51.010;13.792;2023-03-14T15:00:39;0.10;;;0.10;;
75603;SDS011;64187;51.010;13.792;2023-03-14T15:05:40;0.20;;;0.20;;
75603;SDS011;64187;51.010;13.792;2023-03-14T15:10:38;0.28;;;0.10;;
75603;SDS011;64187;51.010;13.792;2023-03-14T15:15:37;0.93;;;0.22;;
75603;SDS011;64187;51.010;13.792;2023-03-14T15:20:36;0.57;;;0.20;;
75603;SDS011;64187;51.010;13.792;2023-03-14T15:25:36;0.60;;;0.25;;
75603;SDS011;64187;51.010;13.792;2023-03-14T15:30:53;0.40;;;0.40;;
75603;SDS011;64187;51.010;13.792;2023-03-14T15:35:54;0.77;;;0.55;;
75603;SDS011;64187;51.010;13.792;2023-03-14T15:40:55;1.23;;;0.30;;
75603;SDS011;64187;51.010;13.792;2023-03-14T15:45:54;0.30;;;0.20;;
75603;SDS011;64187;51.010;13.792;2023-03-14T15:50:55;0.45;;;0.20;;
75603;SDS011;64187;51.010;13.792;2023-03-14T15:55:54;0.68;;;0.20;;
75603;SDS011;64187;51.010;13.792;2023-03-14T16:00:52;1.05;;;0.30;;
75603;SDS011;64187;51.010;13.792;2023-03-14T16:05:51;0.22;;;0.10;;
75603;SDS011;64187;51.010;13.792;2023-03-14T16:10:50;0.45;;;0.30;;
75603;SDS011;64187;51.010;13.792;2023-03-14T16:16:00;0.35;;;0.28;;
75603;SDS011;64187;51.010;13.792;2023-03-14T16:21:10;0.70;;;0.30;;
75603;SDS011;64187;51.010;13.792;2023-03-14T16:26:12;0.40;;;0.28;;
75603;SDS011;64187;51.010;13.792;2023-03-14T16:31:14;0.85;;;0.20;;
75603;SDS011;64187;51.010;13.792;2023-03-14T16:36:15;0.08;;;0.08;;
75603;SDS011;64187;51.010;13.792;2023-03-14T16:41:15;1.83;;;0.40;;
75603;SDS011;64187;51.010;13.792;2023-03-14T16:46:16;0.60;;;0.32;;
75603;SDS011;64187;51.010;13.792;2023-03-14T16:51:15;0.82;;;0.32;;
75603;SDS011;64187;51.010;13.792;2023-03-14T16:56:14;0.88;;;0.30;;
75603;SDS011;64187;51.010;13.792;2023-03-14T17:01:14;1.30;;;0.28;;
75603;SDS011;64187;51.010;13.792;2023-03-14T17:06:17;0.32;;;0.25;;
75603;SDS011;64187;51.010;13.792;2023-03-14T17:11:18;2.30;;;0.40;;
75603;SDS011;64187;51.010;13.792;2023-03-14T17:16:18;1.02;;;0.38;;
75603;SDS011;64187;51.010;13.792;2023-03-14T17:21:19;0.50;;;0.10;;
75603;SDS011;64187;51.010;13.792;2023-03-14T17:26:19;0.57;;;0.32;;
75603;SDS011;64187;51.010;13.792;2023-03-14T17:31:17;0.20;;;0.10;;
75603;SDS011;64187;51.010;13.792;2023-03-14T17:36:17;0.20;;;0.20;;
75603;SDS011;64187;51.010;13.792;2023-03-14T17:41:16;0.20;;;0.10;;
75603;SDS011;64187;51.010;13.792;2023-03-14T17:46:15;1.83;;;0.30;;
75603;SDS011;64187;51.010;13.792;2023-03-14T17:51:15;1.27;;;0.10;;
75603;SDS011;64187;51.010;13.792;2023-03-14T17:56:14;0.10;;;0.00;;
75603;SDS011;64187;51.010;13.792;2023-03-14T18:01:14;0.30;;;0.22;;
75603;SDS011;64187;51.010;13.792;2023-03-14T18:06:15;0.95;;;0.40;;
75603;SDS011;64187;51.010;13.792;2023-03-14T18:11:15;3.88;;;0.50;;
75603;SDS011;64187;51.010;13.792;2023-03-14T18:16:14;1.33;;;0.45;;
75603;SDS011;64187;51.010;13.792;2023-03-14T18:21:15;1.80;;;1.02;;
75603;SDS011;64187;51.010;13.792;2023-03-14T18:26:14;2.63;;;0.60;;
75603;SDS011;64187;51.010;13.792;2023-03-14T18:31:14;0.55;;;0.30;;
75603;SDS011;64187;51.010;13.792;2023-03-14T18:36:17;2.40;;;0.65;;
75603;SDS011;64187;51.010;13.792;2023-03-14T18:41:17;2.85;;;0.45;;
75603;SDS011;64187;51.010;13.792;2023-03-14T18:46:20;3.40;;;0.82;;
75603;SDS011;64187;51.010;13.792;2023-03-14T18:51:21;2.83;;;0.90;;
75603;SDS011;64187;51.010;13.792;2023-03-14T18:56:24;0.95;;;0.50;;
75603;SDS011;64187;51.010;13.792;2023-03-14T19:01:23;2.05;;;0.65;;
75603;SDS011;64187;51.010;13.792;2023-03-14T19:06:28;0.73;;;0.40;;
75603;SDS011;64187;51.010;13.792;2023-03-14T19:11:31;2.83;;;0.52;;
75603;SDS011;64187;51.010;13.792;2023-03-14T19:16:30;0.65;;;0.50;;
75603;SDS011;64187;51.010;13.792;2023-03-14T19:21:30;2.08;;;0.73;;
75603;SDS011;64187;51.010;13.792;2023-03-14T19:26:31;5.85;;;1.38;;
75603;SDS011;64187;51.010;13.792;2023-03-14T19:31:30;3.63;;;0.60;;
75603;SDS011;64187;51.010;13.792;2023-03-14T19:36:30;1.13;;;0.50;;
75603;SDS011;64187;51.010;13.792;2023-03-14T19:41:31;1.73;;;0.63;;
75603;SDS011;64187;51.010;13.792;2023-03-14T19:46:30;4.75;;;1.02;;
75603;SDS011;64187;51.010;13.792;2023-03-14T19:51:32;5.93;;;1.00;;
75603;SDS011;64187;51.010;13.792;2023-03-14T19:56:33;9.32;;;1.67;;
75603;SDS011;64187;51.010;13.792;2023-03-14T20:01:33;3.13;;;1.02;;
75603;SDS011;64187;51.010;13.792;2023-03-14T20:06:32;9.30;;;1.55;;
75603;SDS011;64187;51.010;13.792;2023-03-14T20:11:32;4.78;;;1.15;;
75603;SDS011;64187;51.010;13.792;2023-03-14T20:16:32;4.00;;;1.20;;
75603;SDS011;64187;51.010;13.792;2023-03-14T20:21:34;7.78;;;1.35;;
75603;SDS011;64187;51.010;13.792;2023-03-14T20:26:34;5.72;;;1.23;;
75603;SDS011;64187;51.010;13.792;2023-03-14T20:31:33;4.95;;;1.23;;
75603;SDS011;64187;51.010;13.792;2023-03-14T20:36:35;4.32;;;1.48;;
75603;SDS011;64187;51.010;13.792;2023-03-14T20:41:35;3.33;;;1.40;;
75603;SDS011;64187;51.010;13.792;2023-03-14T20:46:39;5.28;;;1.23;;
75603;SDS011;64187;51.010;13.792;2023-03-14T20:51:38;4.53;;;1.33;;
75603;SDS011;64187;51.010;13.792;2023-03-14T20:56:37;6.68;;;1.45;;
75603;SDS011;64187;51.010;13.792;2023-03-14T21:01:36;10.93;;;2.30;;
75603;SDS011;64187;51.010;13.792;2023-03-14T21:06:35;4.55;;;0.82;;
75603;SDS011;64187;51.010;13.792;2023-03-14T21:11:33;8.70;;;2.05;;
75603;SDS011;64187;51.010;13.792;2023-03-14T21:16:35;5.03;;;0.95;;
75603;SDS011;64187;51.010;13.792;2023-03-14T21:21:34;5.57;;;1.20;;
75603;SDS011;64187;51.010;13.792;2023-03-14T21:26:33;4.38;;;1.27;;
75603;SDS011;64187;51.010;13.792;2023-03-14T21:31:32;4.03;;;0.80;;
75603;SDS011;64187;51.010;13.792;2023-03-14T21:36:32;3.08;;;0.95;;
75603;SDS011;64187;51.010;13.792;2023-03-14T21:41:31;3.72;;;0.80;;
75603;SDS011;64187;51.010;13.792;2023-03-14T21:46:30;5.43;;;1.00;;
75603;SDS011;64187;51.010;13.792;2023-03-14T21:51:29;3.92;;;0.90;;
75603;SDS011;64187;51.010;13.792;2023-03-14T21:56:33;4.72;;;0.98;;
75603;SDS011;64187;51.010;13.792;2023-03-14T22:01:32;4.68;;;1.27;;
75603;SDS011;64187;51.010;13.792;2023-03-14T22:06:31;2.78;;;0.93;;
75603;SDS011;64187;51.010;13.792;2023-03-14T22:11:29;6.85;;;1.30;;
75603;SDS011;64187;51.010;13.792;2023-03-14T22:16:28;6.57;;;0.80;;
75603;SDS011;64187;51.010;13.792;2023-03-14T22:21:27;5.70;;;0.95;;
75603;SDS011;64187;51.010;13.792;2023-03-14T22:26:26;5.32;;;1.17;;
75603;SDS011;64187;51.010;13.792;2023-03-14T22:31:25;3.85;;;1.08;;
75603;SDS011;64187;51.010;13.792;2023-03-14T22:36:24;3.47;;;0.70;;
75603;SDS011;64187;51.010;13.792;2023-03-14T22:41:23;5.00;;;1.15;;
75603;SDS011;64187;51.010;13.792;2023-03-14T22:46:21;8.13;;;0.93;;
75603;SDS011;64187;51.010;13.792;2023-03-14T22:51:20;6.35;;;0.90;;
75603;SDS011;64187;51.010;13.792;2023-03-14T22:56:19;7.68;;;1.17;;
75603;SDS011;64187;51.010;13.792;2023-03-14T23:01:18;4.97;;;1.10;;
75603;SDS011;64187;51.010;13.792;2023-03-14T23:06:18;5.13;;;0.85;;
75603;SDS011;64187;51.010;13.792;2023-03-14T23:11:18;3.78;;;1.08;;
75603;SDS011;64187;51.010;13.792;2023-03-14T23:16:16;4.82;;;1.00;;
75603;SDS011;64187;51.010;13.792;2023-03-14T23:21:20;6.97;;;1.33;;
75603;SDS011;64187;51.010;13.792;2023-03-14T23:26:21;4.40;;;1.15;;
75603;SDS011;64187;51.010;13.792;2023-03-14T23:31:22;4.40;;;1.20;;
75603;SDS011;64187;51.010;13.792;2023-03-14T23:36:23;4.95;;;1.00;;
75603;SDS011;64187;51.010;13.792;2023-03-14T23:41:22;4.15;;;0.98;;
75603;SDS011;64187;51.010;13.792;2023-03-14T23:46:21;7.15;;;0.95;;
75603;SDS011;64187;51.010;13.792;2023-03-14T23:51:20;5.18;;;1.17;;
75603;SDS011;64187;51.010;13.792;2023-03-14T23:56:19;8.90;;;1.05;;
